sensor_id;sensor_type;location;lat;lon;timestamp;temperature;humidity
23813;DHT22;12087;45.190;5.688;2022-09-03T00:02:15;19.80;99.90
23813;DHT22;12087;45.190;5.688;2022-09-03T00:07:45;19.80;99.90
23813;DHT22;12087;45.190;5.688;2022-09-03T00:13:14;19.80;99.90
23813;DHT22;12087;45.190;5.688;2022-09-03T00:18:43;19.90;99.90
23813;DHT22;12087;45.190;5.688;2022-09-03T00:24:10;19.90;99.90
23813;DHT22;12087;45.190;5.688;2022-09-03T00:29:38;19.80;99.90
23813;DHT22;12087;45.190;5.688;2022-09-03T00:35:04;19.70;99.90
23813;DHT22;12087;45.190;5.688;2022-09-03T00:40:37;19.70;99.90
23813;DHT22;12087;45.190;5.688;2022-09-03T00:46:10;19.70;99.90
23813;DHT22;12087;45.190;5.688;2022-09-03T00:51:46;19.70;99.90
23813;DHT22;12087;45.190;5.688;2022-09-03T00:57:21;19.70;99.90
23813;DHT22;12087;45.190;5.688;2022-09-03T01:02:55;19.60;99.90
23813;DHT22;12087;45.190;5.688;2022-09-03T01:08:33;19.70;99.90
23813;DHT22;12087;45.190;5.688;2022-09-03T01:14:04;19.60;99.90
23813;DHT22;12087;45.190;5.688;2022-09-03T01:25:27;19.60;99.90
23813;DHT22;12087;45.190;5.688;2022-09-03T01:31:15;19.60;99.90
23813;DHT22;12087;45.190;5.688;2022-09-03T01:36:47;19.60;99.90
23813;DHT22;12087;45.190;5.688;2022-09-03T01:42:21;19.60;99.90
23813;DHT22;12087;45.190;5.688;2022-09-03T01:47:55;19.60;99.90
23813;DHT22;12087;45.190;5.688;2022-09-03T01:53:38;19.60;99.90
23813;DHT22;12087;45.190;5.688;2022-09-03T01:59:06;19.60;99.90
23813;DHT22;12087;45.190;5.688;2022-09-03T02:04:32;19.70;99.90
23813;DHT22;12087;45.190;5.688;2022-09-03T02:09:54;19.70;99.90
23813;DHT22;12087;45.190;5.688;2022-09-03T02:15:19;19.60;99.90
23813;DHT22;12087;45.190;5.688;2022-09-03T02:20:44;19.60;99.90
23813;DHT22;12087;45.190;5.688;2022-09-03T02:26:09;19.60;99.90
23813;DHT22;12087;45.190;5.688;2022-09-03T02:31:32;19.60;99.90
23813;DHT22;12087;45.190;5.688;2022-09-03T02:36:55;19.60;99.90
23813;DHT22;12087;45.190;5.688;2022-09-03T02:42:18;19.60;99.90
23813;DHT22;12087;45.190;5.688;2022-09-03T02:47:42;19.60;99.90
23813;DHT22;12087;45.190;5.688;2022-09-03T02:53:06;19.60;99.90
23813;DHT22;12087;45.190;5.688;2022-09-03T02:58:29;19.70;99.90
23813;DHT22;12087;45.190;5.688;2022-09-03T03:03:52;19.70;99.90
23813;DHT22;12087;45.190;5.688;2022-09-03T03:09:16;19.70;99.90
23813;DHT22;12087;45.190;5.688;2022-09-03T03:14:38;19.60;99.90
23813;DHT22;12087;45.190;5.688;2022-09-03T03:20:00;19.60;99.90
23813;DHT22;12087;45.190;5.688;2022-09-03T03:25:24;19.60;99.90
23813;DHT22;12087;45.190;5.688;2022-09-03T03:30:46;19.60;99.90
23813;DHT22;12087;45.190;5.688;2022-09-03T03:36:11;19.60;99.90
23813;DHT22;12087;45.190;5.688;2022-09-03T03:41:35;19.50;99.90
23813;DHT22;12087;45.190;5.688;2022-09-03T03:46:58;19.50;99.90
23813;DHT22;12087;45.190;5.688;2022-09-03T03:52:20;19.50;99.90
23813;DHT22;12087;45.190;5.688;2022-09-03T03:57:44;19.40;99.90
23813;DHT22;12087;45.190;5.688;2022-09-03T04:03:07;19.30;99.90
23813;DHT22;12087;45.190;5.688;2022-09-03T04:08:32;19.30;99.90
23813;DHT22;12087;45.190;5.688;2022-09-03T04:13:56;19.30;99.90
23813;DHT22;12087;45.190;5.688;2022-09-03T04:19:18;19.40;99.90
23813;DHT22;12087;45.190;5.688;2022-09-03T04:24:40;19.40;99.90
23813;DHT22;12087;45.190;5.688;2022-09-03T04:30:05;19.40;99.90
23813;DHT22;12087;45.190;5.688;2022-09-03T04:35:27;19.40;99.90
23813;DHT22;12087;45.190;5.688;2022-09-03T04:40:54;19.40;99.90
23813;DHT22;12087;45.190;5.688;2022-09-03T04:46:18;19.40;99.90
23813;DHT22;12087;45.190;5.688;2022-09-03T04:51:41;19.40;99.90
23813;DHT22;12087;45.190;5.688;2022-09-03T04:57:03;19.30;99.90
23813;DHT22;12087;45.190;5.688;2022-09-03T05:02:27;19.30;99.90
23813;DHT22;12087;45.190;5.688;2022-09-03T05:07:49;19.30;99.90
23813;DHT22;12087;45.190;5.688;2022-09-03T05:13:11;19.30;99.90
23813;DHT22;12087;45.190;5.688;2022-09-03T05:18:36;19.30;99.90
23813;DHT22;12087;45.190;5.688;2022-09-03T05:23:59;19.30;99.90
23813;DHT22;12087;45.190;5.688;2022-09-03T05:29:21;19.30;99.90
23813;DHT22;12087;45.190;5.688;2022-09-03T05:34:45;19.40;99.90
23813;DHT22;12087;45.190;5.688;2022-09-03T05:40:08;19.40;99.90
23813;DHT22;12087;45.190;5.688;2022-09-03T05:45:31;19.40;99.90
23813;DHT22;12087;45.190;5.688;2022-09-03T05:51:06;19.40;99.90
23813;DHT22;12087;45.190;5.688;2022-09-03T05:56:30;19.40;99.90
23813;DHT22;12087;45.190;5.688;2022-09-03T06:01:54;19.40;99.90
23813;DHT22;12087;45.190;5.688;2022-09-03T06:07:17;19.50;99.90
23813;DHT22;12087;45.190;5.688;2022-09-03T06:12:40;19.50;99.90
23813;DHT22;12087;45.190;5.688;2022-09-03T06:18:04;19.60;99.90
23813;DHT22;12087;45.190;5.688;2022-09-03T06:23:29;19.60;99.90
23813;DHT22;12087;45.190;5.688;2022-09-03T06:28:52;19.50;99.90
23813;DHT22;12087;45.190;5.688;2022-09-03T06:34:15;19.50;99.90
23813;DHT22;12087;45.190;5.688;2022-09-03T06:39:39;19.60;99.90
23813;DHT22;12087;45.190;5.688;2022-09-03T06:45:02;19.60;99.90
23813;DHT22;12087;45.190;5.688;2022-09-03T06:50:24;19.60;99.90
23813;DHT22;12087;45.190;5.688;2022-09-03T06:55:53;19.70;99.90
23813;DHT22;12087;45.190;5.688;2022-09-03T07:01:19;19.70;99.90
23813;DHT22;12087;45.190;5.688;2022-09-03T07:06:42;19.80;99.90
23813;DHT22;12087;45.190;5.688;2022-09-03T07:12:07;19.90;99.90
23813;DHT22;12087;45.190;5.688;2022-09-03T07:17:30;19.90;99.90
23813;DHT22;12087;45.190;5.688;2022-09-03T07:22:54;20.00;99.90
23813;DHT22;12087;45.190;5.688;2022-09-03T07:28:18;20.10;99.90
23813;DHT22;12087;45.190;5.688;2022-09-03T07:33:41;20.20;99.90
23813;DHT22;12087;45.190;5.688;2022-09-03T07:39:04;20.30;99.90
23813;DHT22;12087;45.190;5.688;2022-09-03T07:44:27;20.60;99.90
23813;DHT22;12087;45.190;5.688;2022-09-03T07:49:50;21.10;99.90
23813;DHT22;12087;45.190;5.688;2022-09-03T07:55:42;21.40;99.90
23813;DHT22;12087;45.190;5.688;2022-09-03T08:01:20;21.30;99.90
23813;DHT22;12087;45.190;5.688;2022-09-03T08:07:01;21.30;99.90
23813;DHT22;12087;45.190;5.688;2022-09-03T08:12:24;21.60;99.90
23813;DHT22;12087;45.190;5.688;2022-09-03T08:17:49;21.70;99.90
23813;DHT22;12087;45.190;5.688;2022-09-03T08:23:11;21.80;99.90
23813;DHT22;12087;45.190;5.688;2022-09-03T08:28:35;21.90;99.90
23813;DHT22;12087;45.190;5.688;2022-09-03T08:34:00;21.90;99.90
23813;DHT22;12087;45.190;5.688;2022-09-03T08:39:26;22.00;99.90
23813;DHT22;12087;45.190;5.688;2022-09-03T08:44:51;22.00;99.90
23813;DHT22;12087;45.190;5.688;2022-09-03T08:50:22;22.10;99.90
23813;DHT22;12087;45.190;5.688;2022-09-03T08:55:51;22.20;99.90
23813;DHT22;12087;45.190;5.688;2022-09-03T09:01:26;22.30;99.90
23813;DHT22;12087;45.190;5.688;2022-09-03T09:06:57;22.40;99.90
23813;DHT22;12087;45.190;5.688;2022-09-03T09:12:30;22.30;99.90
23813;DHT22;12087;45.190;5.688;2022-09-03T09:18:05;22.40;99.90
23813;DHT22;12087;45.190;5.688;2022-09-03T09:23:36;22.60;99.90
23813;DHT22;12087;45.190;5.688;2022-09-03T09:29:04;22.70;99.90
23813;DHT22;12087;45.190;5.688;2022-09-03T09:34:33;22.90;99.90
23813;DHT22;12087;45.190;5.688;2022-09-03T09:39:59;22.90;99.90
23813;DHT22;12087;45.190;5.688;2022-09-03T09:45:22;23.10;99.90
23813;DHT22;12087;45.190;5.688;2022-09-03T09:50:44;23.20;99.90
23813;DHT22;12087;45.190;5.688;2022-09-03T09:56:08;23.50;99.90
23813;DHT22;12087;45.190;5.688;2022-09-03T10:01:42;23.60;99.90
23813;DHT22;12087;45.190;5.688;2022-09-03T10:07:19;23.80;99.90
23813;DHT22;12087;45.190;5.688;2022-09-03T10:12:47;24.00;99.90
23813;DHT22;12087;45.190;5.688;2022-09-03T10:18:14;24.10;99.90
23813;DHT22;12087;45.190;5.688;2022-09-03T10:23:53;24.20;99.90
23813;DHT22;12087;45.190;5.688;2022-09-03T10:29:21;24.40;99.90
23813;DHT22;12087;45.190;5.688;2022-09-03T10:34:51;24.70;99.90
23813;DHT22;12087;45.190;5.688;2022-09-03T10:40:24;24.80;99.90
23813;DHT22;12087;45.190;5.688;2022-09-03T10:45:59;25.00;99.90
23813;DHT22;12087;45.190;5.688;2022-09-03T10:51:27;25.30;99.90
23813;DHT22;12087;45.190;5.688;2022-09-03T10:57:07;25.50;99.90
23813;DHT22;12087;45.190;5.688;2022-09-03T11:02:48;25.40;99.90
23813;DHT22;12087;45.190;5.688;2022-09-03T11:08:20;25.30;99.90
23813;DHT22;12087;45.190;5.688;2022-09-03T11:13:48;25.10;99.90
23813;DHT22;12087;45.190;5.688;2022-09-03T11:19:17;25.10;99.90
23813;DHT22;12087;45.190;5.688;2022-09-03T11:24:40;25.20;99.90
23813;DHT22;12087;45.190;5.688;2022-09-03T11:30:06;25.10;99.90
23813;DHT22;12087;45.190;5.688;2022-09-03T11:35:39;25.40;99.90
23813;DHT22;12087;45.190;5.688;2022-09-03T11:41:10;25.60;99.90
23813;DHT22;12087;45.190;5.688;2022-09-03T11:46:33;25.80;99.90
23813;DHT22;12087;45.190;5.688;2022-09-03T11:52:00;25.90;99.90
23813;DHT22;12087;45.190;5.688;2022-09-03T11:57:26;25.80;99.90
23813;DHT22;12087;45.190;5.688;2022-09-03T12:02:53;25.70;99.90
23813;DHT22;12087;45.190;5.688;2022-09-03T12:14:21;25.50;99.90
23813;DHT22;12087;45.190;5.688;2022-09-03T12:19:49;25.60;99.90
23813;DHT22;12087;45.190;5.688;2022-09-03T12:25:14;26.20;99.90
23813;DHT22;12087;45.190;5.688;2022-09-03T12:30:38;26.70;99.90
23813;DHT22;12087;45.190;5.688;2022-09-03T12:36:01;27.00;99.90
23813;DHT22;12087;45.190;5.688;2022-09-03T12:41:26;27.40;99.90
23813;DHT22;12087;45.190;5.688;2022-09-03T12:46:59;27.70;99.90
23813;DHT22;12087;45.190;5.688;2022-09-03T12:52:25;28.00;99.90
23813;DHT22;12087;45.190;5.688;2022-09-03T12:57:53;28.20;99.70
23813;DHT22;12087;45.190;5.688;2022-09-03T13:03:21;28.40;98.50
23813;DHT22;12087;45.190;5.688;2022-09-03T13:08:48;28.60;98.60
23813;DHT22;12087;45.190;5.688;2022-09-03T13:14:12;28.60;97.40
23813;DHT22;12087;45.190;5.688;2022-09-03T13:19:45;28.50;98.00
23813;DHT22;12087;45.190;5.688;2022-09-03T13:25:19;28.20;97.80
23813;DHT22;12087;45.190;5.688;2022-09-03T13:30:51;28.10;97.90
23813;DHT22;12087;45.190;5.688;2022-09-03T13:36:20;28.10;98.30
23813;DHT22;12087;45.190;5.688;2022-09-03T13:41:47;28.00;98.60
23813;DHT22;12087;45.190;5.688;2022-09-03T13:47:24;27.70;98.80
23813;DHT22;12087;45.190;5.688;2022-09-03T13:52:52;27.50;99.90
23813;DHT22;12087;45.190;5.688;2022-09-03T13:58:29;27.40;99.90
23813;DHT22;12087;45.190;5.688;2022-09-03T14:03:55;27.30;99.50
23813;DHT22;12087;45.190;5.688;2022-09-03T14:09:29;27.30;99.30
23813;DHT22;12087;45.190;5.688;2022-09-03T14:14:59;27.60;99.20
23813;DHT22;12087;45.190;5.688;2022-09-03T14:20:25;28.20;99.30
23813;DHT22;12087;45.190;5.688;2022-09-03T14:25:53;28.30;98.00
23813;DHT22;12087;45.190;5.688;2022-09-03T14:31:24;28.40;97.40
23813;DHT22;12087;45.190;5.688;2022-09-03T14:36:54;28.50;97.00
23813;DHT22;12087;45.190;5.688;2022-09-03T14:42:44;28.70;96.70
23813;DHT22;12087;45.190;5.688;2022-09-03T14:48:34;28.70;96.50
23813;DHT22;12087;45.190;5.688;2022-09-03T14:54:25;28.60;96.00
23813;DHT22;12087;45.190;5.688;2022-09-03T15:00:04;28.40;96.00
23813;DHT22;12087;45.190;5.688;2022-09-03T15:05:49;28.30;96.10
23813;DHT22;12087;45.190;5.688;2022-09-03T15:11:16;28.20;96.30
23813;DHT22;12087;45.190;5.688;2022-09-03T15:16:50;27.90;95.30
23813;DHT22;12087;45.190;5.688;2022-09-03T15:22:25;27.60;96.00
23813;DHT22;12087;45.190;5.688;2022-09-03T15:28:10;27.40;97.30
23813;DHT22;12087;45.190;5.688;2022-09-03T15:33:42;27.20;96.60
23813;DHT22;12087;45.190;5.688;2022-09-03T15:39:09;27.20;98.20
23813;DHT22;12087;45.190;5.688;2022-09-03T15:44:35;27.30;98.70
23813;DHT22;12087;45.190;5.688;2022-09-03T15:50:01;27.30;98.40
23813;DHT22;12087;45.190;5.688;2022-09-03T15:55:32;27.30;97.40
23813;DHT22;12087;45.190;5.688;2022-09-03T16:00:59;27.20;97.00
23813;DHT22;12087;45.190;5.688;2022-09-03T16:06:32;27.10;98.50
23813;DHT22;12087;45.190;5.688;2022-09-03T16:12:09;27.00;97.10
23813;DHT22;12087;45.190;5.688;2022-09-03T16:17:42;26.80;98.20
23813;DHT22;12087;45.190;5.688;2022-09-03T16:23:17;26.80;98.30
23813;DHT22;12087;45.190;5.688;2022-09-03T16:28:44;26.80;99.20
23813;DHT22;12087;45.190;5.688;2022-09-03T16:34:15;26.70;99.60
23813;DHT22;12087;45.190;5.688;2022-09-03T16:39:51;26.60;99.60
23813;DHT22;12087;45.190;5.688;2022-09-03T16:45:22;26.50;99.90
23813;DHT22;12087;45.190;5.688;2022-09-03T16:50:58;26.40;99.10
23813;DHT22;12087;45.190;5.688;2022-09-03T16:56:46;26.30;99.50
23813;DHT22;12087;45.190;5.688;2022-09-03T17:02:26;26.10;99.90
23813;DHT22;12087;45.190;5.688;2022-09-03T17:08:10;26.00;99.90
23813;DHT22;12087;45.190;5.688;2022-09-03T17:13:51;26.00;99.90
23813;DHT22;12087;45.190;5.688;2022-09-03T17:19:23;25.90;99.90
23813;DHT22;12087;45.190;5.688;2022-09-03T17:24:52;25.80;99.90
23813;DHT22;12087;45.190;5.688;2022-09-03T17:30:35;25.80;99.90
23813;DHT22;12087;45.190;5.688;2022-09-03T17:36:14;25.60;99.90
23813;DHT22;12087;45.190;5.688;2022-09-03T17:41:43;25.50;99.90
23813;DHT22;12087;45.190;5.688;2022-09-03T17:47:31;25.50;99.90
23813;DHT22;12087;45.190;5.688;2022-09-03T17:52:57;25.40;99.90
23813;DHT22;12087;45.190;5.688;2022-09-03T17:58:26;25.40;99.90
23813;DHT22;12087;45.190;5.688;2022-09-03T18:03:54;25.30;99.90
23813;DHT22;12087;45.190;5.688;2022-09-03T18:09:23;25.30;99.90
23813;DHT22;12087;45.190;5.688;2022-09-03T18:14:53;25.10;99.90
23813;DHT22;12087;45.190;5.688;2022-09-03T18:20:23;25.00;99.90
23813;DHT22;12087;45.190;5.688;2022-09-03T18:26:10;25.00;99.90
23813;DHT22;12087;45.190;5.688;2022-09-03T18:31:51;25.00;99.90
23813;DHT22;12087;45.190;5.688;2022-09-03T18:37:34;24.90;99.90
23813;DHT22;12087;45.190;5.688;2022-09-03T18:43:18;24.90;99.90
23813;DHT22;12087;45.190;5.688;2022-09-03T18:49:06;24.70;99.90
23813;DHT22;12087;45.190;5.688;2022-09-03T18:54:59;24.10;99.90
23813;DHT22;12087;45.190;5.688;2022-09-03T19:00:47;23.80;99.90
23813;DHT22;12087;45.190;5.688;2022-09-03T19:06:36;23.60;99.90
23813;DHT22;12087;45.190;5.688;2022-09-03T19:12:26;23.40;99.90
23813;DHT22;12087;45.190;5.688;2022-09-03T19:18:13;23.10;99.90
23813;DHT22;12087;45.190;5.688;2022-09-03T19:24:00;22.70;99.90
23813;DHT22;12087;45.190;5.688;2022-09-03T19:29:53;22.30;99.90
23813;DHT22;12087;45.190;5.688;2022-09-03T19:35:42;21.90;99.90
23813;DHT22;12087;45.190;5.688;2022-09-03T19:41:28;21.60;99.90
23813;DHT22;12087;45.190;5.688;2022-09-03T19:47:18;21.30;99.90
23813;DHT22;12087;45.190;5.688;2022-09-03T19:53:00;20.90;99.90
23813;DHT22;12087;45.190;5.688;2022-09-03T19:58:44;20.70;99.90
23813;DHT22;12087;45.190;5.688;2022-09-03T20:04:30;20.60;99.90
23813;DHT22;12087;45.190;5.688;2022-09-03T20:10:12;20.50;99.90
23813;DHT22;12087;45.190;5.688;2022-09-03T20:15:49;20.50;99.90
23813;DHT22;12087;45.190;5.688;2022-09-03T20:21:21;20.40;99.90
23813;DHT22;12087;45.190;5.688;2022-09-03T20:26:49;20.30;99.90
23813;DHT22;12087;45.190;5.688;2022-09-03T20:32:28;20.30;99.90
23813;DHT22;12087;45.190;5.688;2022-09-03T20:38:00;20.20;99.90
23813;DHT22;12087;45.190;5.688;2022-09-03T20:43:51;20.20;99.90
23813;DHT22;12087;45.190;5.688;2022-09-03T20:49:26;20.20;99.90
23813;DHT22;12087;45.190;5.688;2022-09-03T20:55:04;20.10;99.90
23813;DHT22;12087;45.190;5.688;2022-09-03T21:00:37;20.10;99.90
23813;DHT22;12087;45.190;5.688;2022-09-03T21:06:15;20.20;99.90
23813;DHT22;12087;45.190;5.688;2022-09-03T21:11:47;20.30;99.90
23813;DHT22;12087;45.190;5.688;2022-09-03T21:17:27;20.40;99.90
23813;DHT22;12087;45.190;5.688;2022-09-03T21:23:03;20.30;99.90
23813;DHT22;12087;45.190;5.688;2022-09-03T21:28:32;20.40;99.90
23813;DHT22;12087;45.190;5.688;2022-09-03T21:34:07;20.40;99.90
23813;DHT22;12087;45.190;5.688;2022-09-03T21:39:32;20.40;99.90
23813;DHT22;12087;45.190;5.688;2022-09-03T21:45:01;20.30;99.90
23813;DHT22;12087;45.190;5.688;2022-09-03T21:50:28;20.20;99.90
23813;DHT22;12087;45.190;5.688;2022-09-03T22:01:49;20.10;99.90
23813;DHT22;12087;45.190;5.688;2022-09-03T22:07:22;20.10;99.90
23813;DHT22;12087;45.190;5.688;2022-09-03T22:12:55;20.20;99.90
23813;DHT22;12087;45.190;5.688;2022-09-03T22:18:25;20.20;99.90
23813;DHT22;12087;45.190;5.688;2022-09-03T22:23:57;20.30;99.90
23813;DHT22;12087;45.190;5.688;2022-09-03T22:29:32;20.30;99.90
23813;DHT22;12087;45.190;5.688;2022-09-03T22:40:48;20.30;99.90
23813;DHT22;12087;45.190;5.688;2022-09-03T22:46:12;20.30;99.90
23813;DHT22;12087;45.190;5.688;2022-09-03T22:51:45;20.20;99.90
23813;DHT22;12087;45.190;5.688;2022-09-03T22:57:12;20.10;99.90
23813;DHT22;12087;45.190;5.688;2022-09-03T23:02:36;20.20;99.90
23813;DHT22;12087;45.190;5.688;2022-09-03T23:08:07;20.10;99.90
23813;DHT22;12087;45.190;5.688;2022-09-03T23:13:34;20.10;99.90
23813;DHT22;12087;45.190;5.688;2022-09-03T23:19:00;20.00;99.90
23813;DHT22;12087;45.190;5.688;2022-09-03T23:24:27;20.00;99.90
23813;DHT22;12087;45.190;5.688;2022-09-03T23:29:54;20.00;99.90
23813;DHT22;12087;45.190;5.688;2022-09-03T23:35:16;19.90;99.90
23813;DHT22;12087;45.190;5.688;2022-09-03T23:40:49;19.90;99.90
23813;DHT22;12087;45.190;5.688;2022-09-03T23:46:16;19.90;99.90
23813;DHT22;12087;45.190;5.688;2022-09-03T23:51:52;19.90;99.90
23813;DHT22;12087;45.190;5.688;2022-09-03T23:57:21;19.90;99.90
